Lastoursville, Gabon
Current Conditions -  °F | °C
As of 7:00 PM on Sunday 25 Jan 2015 (Local Time) from FCPD Reporting Station
Overcast Overcast  
Wind Chill: 73°   Ceiling: 13000
Heat Index: 73°   Visibility: 6mi
Dew Point: 72°   Wind: 5mph
Humidity: 94%   Direction: 200°SSW
Pressure: 29.85"   Gusts: NA
Location:  0.81°S, 12.71°E
Report Text: FCPD 251800Z 20004KT 9999 FEW016 OVC130 23/22 Q1011
Loading
Personal Weather Stations






























Interactive Weather Map New forecast layout! Learn more

10-Day Weather Forecast

Advertisements
Track Severe Weather on mobile